createdAt,value
2023-01-29T00:02:01.455Z,44.92
2023-01-29T00:04:29.009Z,49.78
2023-01-29T00:06:57.938Z,48.45
2023-01-29T00:09:25.749Z,47.83
2023-01-29T00:11:53.237Z,49.15
2023-01-29T00:14:21.052Z,51.10
2023-01-29T00:16:48.885Z,45.13
2023-01-29T00:19:17.428Z,50.43
2023-01-29T00:21:44.959Z,50.13
2023-01-29T00:24:14.145Z,46.45
2023-01-29T00:26:42.384Z,45.65
2023-01-29T00:29:10.075Z,48.92
2023-01-29T00:31:37.629Z,47.83
2023-01-29T00:34:05.219Z,47.50
2023-01-29T00:36:32.704Z,46.65
2023-01-29T00:39:03.462Z,46.95
2023-01-29T00:41:51.539Z,49.63
2023-01-29T00:44:37.202Z,51.00
2023-01-29T00:47:25.519Z,53.47
2023-01-29T00:49:53.095Z,51.43
2023-01-29T00:52:26.936Z,46.17
2023-01-29T00:54:55.500Z,54.65
2023-01-29T00:57:24.729Z,54.35
2023-01-29T00:59:52.318Z,50.78
2023-01-29T01:02:38.252Z,50.30
2023-01-29T01:05:07.661Z,54.92
2023-01-29T01:07:35.535Z,53.25
2023-01-29T01:10:20.916Z,51.05
2023-01-29T01:12:52.231Z,49.28
2023-01-29T01:15:20.851Z,52.60
2023-01-29T01:17:53.878Z,50.00
2023-01-29T01:20:21.484Z,50.13
2023-01-29T01:22:49.358Z,50.75
2023-01-29T01:25:17.514Z,51.60
2023-01-29T01:27:45.029Z,52.77
2023-01-29T01:30:16.113Z,51.53
2023-01-29T01:32:44.351Z,54.13
2023-01-29T01:35:13.714Z,50.45
2023-01-29T01:37:42.034Z,56.08
2023-01-29T01:40:18.767Z,53.42
2023-01-29T01:42:49.274Z,53.00
2023-01-29T01:45:23.111Z,54.83
2023-01-29T01:47:52.831Z,54.22
2023-01-29T01:50:26.748Z,57.58
2023-01-29T01:52:56.722Z,56.75
2023-01-29T01:55:27.800Z,55.67
2023-01-29T01:57:59.475Z,52.80
2023-01-29T02:00:28.423Z,61.92
2023-01-29T02:03:13.935Z,58.05
2023-01-29T02:05:59.806Z,60.88
2023-01-29T02:08:49.154Z,59.33
2023-01-29T02:11:17.163Z,59.10
2023-01-29T02:13:45.673Z,56.80
2023-01-29T02:16:14.512Z,59.38
2023-01-29T02:18:42.017Z,58.67
2023-01-29T02:21:25.151Z,58.20
2023-01-29T02:24:23.734Z,59.58
2023-01-29T02:26:56.959Z,66.13
2023-01-29T02:29:33.201Z,58.20
2023-01-29T02:32:10.890Z,58.10
2023-01-29T02:35:00.564Z,56.90
2023-01-29T02:37:36.155Z,57.90
2023-01-29T02:40:10.856Z,55.87
2023-01-29T02:42:43.549Z,56.03
2023-01-29T02:45:15.407Z,59.05
2023-01-29T02:47:48.525Z,59.08
2023-01-29T02:50:20.504Z,59.25
2023-01-29T02:52:56.762Z,59.55
2023-01-29T02:55:28.563Z,61.38
2023-01-29T02:58:00.597Z,59.53
2023-01-29T03:00:31.819Z,53.22
2023-01-29T03:03:03.395Z,61.85
2023-01-29T03:05:33.859Z,67.28
2023-01-29T03:08:05.277Z,58.15
2023-01-29T03:10:36.691Z,62.72
2023-01-29T03:13:07.556Z,60.72
2023-01-29T03:15:42.410Z,56.63
2023-01-29T03:18:12.995Z,60.92
2023-01-29T03:20:48.714Z,62.05
2023-01-29T03:23:23.889Z,56.80
2023-01-29T03:26:10.372Z,56.08
2023-01-29T03:28:56.522Z,57.65
2023-01-29T03:31:45.181Z,60.88
2023-01-29T03:34:18.114Z,56.00
2023-01-29T03:36:50.160Z,60.30
2023-01-29T03:39:18.384Z,60.83
2023-01-29T03:41:50.143Z,58.35
2023-01-29T03:44:20.580Z,55.47
2023-01-29T03:46:53.801Z,54.63
2023-01-29T03:49:26.785Z,54.85
2023-01-29T03:51:57.879Z,53.97
2023-01-29T03:54:29.858Z,55.77
2023-01-29T03:57:00.664Z,54.38
2023-01-29T03:59:36.819Z,50.80
2023-01-29T04:02:07.631Z,53.10
2023-01-29T04:04:36.971Z,49.83
2023-01-29T04:07:08.260Z,52.10
2023-01-29T04:09:39.769Z,50.72
2023-01-29T04:12:10.229Z,52.47
2023-01-29T04:14:39.215Z,53.53
2023-01-29T04:17:12.682Z,52.78
2023-01-29T04:19:40.577Z,52.67
2023-01-29T04:22:11.474Z,53.35
2023-01-29T04:24:39.107Z,50.50
2023-01-29T04:27:20.775Z,54.63
2023-01-29T04:30:18.188Z,54.33
2023-01-29T04:32:59.049Z,54.25
2023-01-29T04:35:32.249Z,55.28
2023-01-29T04:38:09.153Z,56.85
2023-01-29T04:40:44.162Z,56.77
2023-01-29T04:43:17.511Z,58.25
2023-01-29T04:45:50.630Z,53.23
2023-01-29T04:48:23.230Z,56.30
2023-01-29T04:50:56.176Z,59.80
2023-01-29T04:53:27.692Z,56.35
2023-01-29T04:55:59.492Z,52.53
2023-01-29T04:58:31.416Z,56.63
2023-01-29T05:00:59.905Z,51.15
2023-01-29T05:03:30.446Z,57.55
2023-01-29T05:05:59.211Z,56.37
2023-01-29T05:08:27.464Z,58.10
2023-01-29T05:10:55.902Z,62.50
2023-01-29T05:13:24.547Z,64.90
2023-01-29T05:15:57.825Z,59.58
2023-01-29T05:18:25.621Z,60.25
2023-01-29T05:20:56.621Z,63.30
2023-01-29T05:23:24.489Z,61.05
2023-01-29T05:25:52.622Z,57.73
2023-01-29T05:28:19.471Z,66.33
2023-01-29T05:30:48.276Z,60.90
2023-01-29T05:33:18.834Z,56.78
2023-01-29T05:35:47.092Z,62.42
2023-01-29T05:38:16.690Z,59.60
2023-01-29T05:40:44.919Z,52.17
2023-01-29T05:43:17.406Z,54.25
2023-01-29T05:45:45.191Z,54.23
2023-01-29T05:48:12.845Z,52.28
2023-01-29T05:50:40.333Z,54.60
2023-01-29T05:53:07.825Z,60.05
2023-01-29T05:55:37.068Z,55.17
2023-01-29T05:58:05.968Z,55.03
2023-01-29T06:00:33.754Z,55.47
2023-01-29T06:03:01.717Z,55.25
2023-01-29T06:05:29.534Z,52.25
2023-01-29T06:07:57.239Z,54.30
2023-01-29T06:10:24.768Z,48.67
2023-01-29T06:12:53.890Z,52.70
2023-01-29T06:15:21.610Z,57.43
2023-01-29T06:17:49.369Z,51.33
2023-01-29T06:20:17.325Z,55.15
2023-01-29T06:22:45.123Z,50.92
2023-01-29T06:25:12.939Z,53.63
2023-01-29T06:27:40.445Z,53.17
2023-01-29T06:30:10.700Z,50.70
2023-01-29T06:32:38.268Z,50.35
2023-01-29T06:35:06.733Z,48.13
2023-01-29T06:37:34.515Z,54.55
2023-01-29T06:40:02.194Z,51.05
2023-01-29T06:42:29.690Z,49.80
2023-01-29T06:44:57.718Z,55.28
2023-01-29T06:47:28.319Z,52.35
2023-01-29T06:49:56.124Z,52.22
2023-01-29T06:52:25.519Z,54.83
2023-01-29T06:54:53.209Z,51.47
2023-01-29T06:57:20.735Z,51.58
2023-01-29T06:59:48.447Z,52.63
2023-01-29T07:02:16.098Z,51.25
2023-01-29T07:04:45.127Z,50.53
2023-01-29T07:07:13.681Z,53.58
2023-01-29T07:09:41.866Z,47.13
2023-01-29T07:12:09.491Z,51.00
2023-01-29T07:14:37.032Z,49.80
2023-01-29T07:17:04.745Z,55.17
2023-01-29T07:19:32.303Z,56.25
2023-01-29T07:22:02.271Z,53.90
2023-01-29T07:24:29.937Z,50.95
2023-01-29T07:26:57.519Z,53.13
2023-01-29T07:29:25.032Z,55.65
2023-01-29T07:31:52.644Z,52.67
2023-01-29T07:34:20.583Z,54.63
2023-01-29T07:36:48.283Z,59.42
2023-01-29T07:39:17.223Z,53.00
2023-01-29T07:41:44.668Z,56.40
2023-01-29T07:44:12.320Z,55.33
2023-01-29T07:46:39.997Z,57.45
2023-01-29T07:49:07.705Z,49.55
2023-01-29T07:51:35.429Z,48.70
2023-01-29T07:54:02.887Z,51.72
2023-01-29T07:56:31.895Z,50.55
2023-01-29T07:58:59.644Z,50.45
2023-01-29T08:01:27.294Z,56.47
2023-01-29T08:03:54.984Z,51.85
2023-01-29T08:06:22.653Z,53.30
2023-01-29T08:08:50.530Z,45.13
2023-01-29T08:11:18.198Z,48.17
2023-01-29T08:13:47.106Z,52.38
2023-01-29T08:16:14.770Z,53.45
2023-01-29T08:18:46.409Z,52.13
2023-01-29T08:21:14.129Z,57.40
2023-01-29T08:23:41.975Z,52.35
2023-01-29T08:26:09.639Z,50.45
2023-01-29T08:28:38.568Z,52.57
2023-01-29T08:31:14.314Z,56.75
2023-01-29T08:33:41.865Z,54.78
2023-01-29T08:36:10.875Z,56.70
2023-01-29T08:38:38.453Z,54.15
2023-01-29T08:41:06.691Z,56.30
2023-01-29T08:43:35.393Z,56.47
2023-01-29T08:46:04.315Z,53.67
2023-01-29T08:48:33.681Z,52.17
2023-01-29T08:51:02.194Z,58.72
2023-01-29T08:53:29.721Z,55.88
2023-01-29T08:55:57.266Z,51.17
2023-01-29T08:58:24.780Z,54.17
2023-01-29T09:00:52.457Z,53.75
2023-01-29T09:03:20.064Z,57.97
2023-01-29T09:05:48.949Z,50.80
2023-01-29T09:08:16.656Z,56.83
2023-01-29T09:10:44.333Z,55.72
2023-01-29T09:13:12.126Z,53.58
2023-01-29T09:15:39.824Z,52.40
2023-01-29T09:18:07.604Z,58.03
2023-01-29T09:20:37.748Z,50.13
2023-01-29T09:23:07.583Z,58.10
2023-01-29T09:25:35.122Z,52.08
2023-01-29T09:28:02.824Z,49.63
2023-01-29T09:30:30.494Z,57.80
2023-01-29T09:32:58.115Z,46.07
2023-01-29T09:35:25.808Z,55.45
2023-01-29T09:37:54.026Z,61.43
2023-01-29T09:40:26.814Z,57.80
2023-01-29T09:42:57.788Z,54.47
2023-01-29T09:45:26.332Z,54.33
2023-01-29T09:47:54.831Z,58.05
2023-01-29T09:50:25.061Z,58.70
2023-01-29T09:52:55.427Z,54.53
2023-01-29T09:55:27.594Z,55.75
2023-01-29T09:57:57.710Z,56.90
2023-01-29T10:00:26.673Z,56.22
2023-01-29T10:03:12.033Z,53.03
2023-01-29T10:05:54.621Z,51.08
2023-01-29T10:08:48.726Z,51.78
2023-01-29T10:11:27.609Z,60.70
2023-01-29T10:14:05.736Z,53.75
2023-01-29T10:16:44.033Z,50.72
2023-01-29T10:19:50.224Z,52.17
2023-01-29T10:22:32.882Z,55.85
2023-01-29T10:25:02.951Z,50.38
2023-01-29T10:27:34.185Z,62.08
2023-01-29T10:30:04.438Z,56.25
2023-01-29T10:32:32.094Z,57.65
2023-01-29T10:35:03.027Z,55.00
2023-01-29T10:37:37.401Z,58.95
2023-01-29T10:40:23.761Z,54.38
2023-01-29T10:42:57.894Z,56.17
2023-01-29T10:45:31.445Z,55.73
2023-01-29T10:48:33.827Z,51.85
2023-01-29T10:51:07.174Z,50.97
2023-01-29T10:53:42.643Z,55.25
2023-01-29T10:56:23.402Z,54.83
2023-01-29T10:58:54.091Z,55.00
2023-01-29T11:01:21.791Z,54.33
2023-01-29T11:03:58.389Z,57.45
2023-01-29T11:06:30.143Z,58.08
2023-01-29T11:09:03.595Z,50.05
2023-01-29T11:11:34.736Z,56.05
2023-01-29T11:14:09.034Z,51.95
2023-01-29T11:16:42.355Z,57.13
2023-01-29T11:19:10.139Z,56.17
2023-01-29T11:21:52.976Z,44.17
2023-01-29T11:24:20.840Z,55.13
2023-01-29T11:26:50.045Z,57.85
2023-01-29T11:29:38.389Z,56.90
2023-01-29T11:32:07.106Z,53.45
2023-01-29T11:34:35.248Z,58.03
2023-01-29T11:37:04.804Z,59.38
2023-01-29T11:39:33.541Z,56.40
2023-01-29T11:42:03.798Z,60.28
2023-01-29T11:44:36.632Z,47.97
2023-01-29T11:47:13.765Z,58.45
2023-01-29T11:49:45.783Z,57.53
2023-01-29T11:52:14.599Z,49.97
2023-01-29T11:54:46.567Z,56.03
2023-01-29T11:57:27.908Z,54.53
2023-01-29T11:59:58.188Z,56.58
2023-01-29T12:02:31.395Z,57.87
2023-01-29T12:05:02.394Z,57.53
2023-01-29T12:07:30.990Z,55.28
2023-01-29T12:09:59.983Z,55.25
2023-01-29T12:12:33.691Z,51.97
2023-01-29T12:15:19.627Z,60.40
2023-01-29T12:18:06.556Z,57.80
2023-01-29T12:20:38.109Z,55.30
2023-01-29T12:23:13.146Z,58.05
2023-01-29T12:25:46.241Z,53.97
2023-01-29T12:28:24.923Z,50.63
2023-01-29T12:31:07.745Z,51.13
2023-01-29T12:33:42.438Z,59.85
2023-01-29T12:36:15.062Z,57.97
2023-01-29T12:38:45.207Z,49.85
2023-01-29T12:41:25.693Z,54.20
2023-01-29T12:43:55.401Z,54.40
2023-01-29T12:46:27.820Z,52.17
2023-01-29T12:48:56.538Z,54.70
2023-01-29T12:51:26.946Z,58.47
2023-01-29T12:53:57.614Z,46.05
2023-01-29T12:56:30.323Z,46.63
2023-01-29T12:58:59.256Z,50.22
2023-01-29T13:01:32.158Z,50.03
2023-01-29T13:04:04.029Z,49.90
2023-01-29T13:06:33.348Z,55.70
2023-01-29T13:09:03.633Z,53.05
2023-01-29T13:11:35.493Z,47.70
2023-01-29T13:14:05.612Z,52.45
2023-01-29T13:16:39.671Z,49.58
2023-01-29T13:19:10.924Z,51.50
2023-01-29T13:21:41.888Z,49.65
2023-01-29T13:24:13.467Z,47.97
2023-01-29T13:26:42.014Z,53.28
2023-01-29T13:29:22.143Z,51.97
2023-01-29T13:31:51.526Z,52.28
2023-01-29T13:34:23.387Z,50.93
2023-01-29T13:36:53.224Z,51.58
2023-01-29T13:39:26.353Z,50.38
2023-01-29T13:41:56.112Z,53.83
2023-01-29T13:44:26.383Z,51.27
2023-01-29T13:47:00.167Z,48.37
2023-01-29T13:49:34.822Z,50.00
2023-01-29T13:52:17.411Z,51.65
2023-01-29T13:54:52.257Z,50.42
2023-01-29T13:57:36.599Z,52.65
2023-01-29T14:00:04.936Z,49.00
2023-01-29T14:02:33.965Z,52.55
2023-01-29T14:05:39.093Z,55.50
2023-01-29T14:08:07.979Z,48.38
2023-01-29T14:10:37.010Z,46.78
2023-01-29T14:13:29.663Z,48.20
2023-01-29T14:16:29.317Z,52.10
2023-01-29T14:19:01.106Z,50.40
2023-01-29T14:21:31.813Z,51.95
2023-01-29T14:24:01.267Z,50.72
2023-01-29T14:26:31.777Z,59.78
2023-01-29T14:29:03.239Z,49.63
2023-01-29T14:31:40.911Z,60.75
2023-01-29T14:34:17.878Z,50.88
2023-01-29T14:36:46.577Z,52.63
2023-01-29T14:39:23.688Z,51.85
2023-01-29T14:41:51.802Z,53.33
2023-01-29T14:44:57.903Z,59.08
2023-01-29T14:47:59.494Z,52.00
2023-01-29T14:50:47.897Z,52.03
2023-01-29T14:53:19.779Z,56.08
2023-01-29T14:55:53.333Z,54.05
2023-01-29T14:58:24.643Z,55.97
2023-01-29T15:00:55.686Z,53.67
2023-01-29T15:03:30.984Z,55.22
2023-01-29T15:06:01.057Z,53.97
2023-01-29T15:08:34.322Z,57.63
2023-01-29T15:11:22.099Z,52.67
2023-01-29T15:13:54.502Z,54.78
2023-01-29T15:16:25.320Z,56.87
2023-01-29T15:18:57.633Z,51.55
2023-01-29T15:21:26.482Z,53.05
2023-01-29T15:24:05.211Z,48.95
2023-01-29T15:26:33.314Z,59.45
2023-01-29T15:29:04.636Z,57.50
2023-01-29T15:31:32.898Z,55.60
2023-01-29T15:34:05.404Z,55.70
2023-01-29T15:36:34.967Z,53.05
2023-01-29T15:39:15.879Z,57.10
2023-01-29T15:41:43.614Z,58.10
2023-01-29T15:44:16.406Z,60.42
2023-01-29T15:46:46.090Z,62.67
2023-01-29T15:49:19.569Z,55.13
2023-01-29T15:51:49.486Z,62.20
2023-01-29T15:54:18.385Z,53.38
2023-01-29T15:56:48.517Z,59.17
2023-01-29T15:59:19.139Z,60.47
2023-01-29T16:01:46.728Z,57.50
2023-01-29T16:04:16.578Z,60.88
2023-01-29T16:06:44.780Z,63.97
2023-01-29T16:09:18.681Z,62.13
2023-01-29T16:11:46.972Z,61.63
2023-01-29T16:14:16.247Z,60.67
2023-01-29T16:16:45.048Z,62.88
2023-01-29T16:19:22.522Z,52.00
2023-01-29T16:21:55.488Z,59.20
2023-01-29T16:24:25.170Z,62.40
2023-01-29T16:26:54.259Z,61.53
2023-01-29T16:29:24.064Z,62.15
2023-01-29T16:31:53.175Z,65.18
2023-01-29T16:34:25.508Z,61.80
2023-01-29T16:36:54.702Z,60.03
2023-01-29T16:39:26.105Z,61.38
2023-01-29T16:42:21.069Z,62.83
2023-01-29T16:44:51.631Z,61.17
2023-01-29T16:47:25.097Z,66.70
2023-01-29T16:49:54.509Z,61.38
2023-01-29T16:52:26.036Z,63.95
2023-01-29T16:55:00.139Z,66.18
2023-01-29T16:57:31.320Z,63.25
2023-01-29T17:00:02.268Z,65.47
2023-01-29T17:02:33.138Z,69.03
2023-01-29T17:05:03.427Z,64.00
2023-01-29T17:07:31.601Z,62.95
2023-01-29T17:10:02.522Z,65.03
2023-01-29T17:12:31.631Z,73.63
2023-01-29T17:15:00.395Z,65.22
2023-01-29T17:17:32.861Z,69.07
2023-01-29T17:20:14.678Z,73.35
2023-01-29T17:22:42.258Z,58.67
2023-01-29T17:25:14.462Z,65.00
2023-01-29T17:27:42.601Z,63.45
2023-01-29T17:30:15.301Z,66.63
2023-01-29T17:32:45.220Z,61.50
2023-01-29T17:35:16.017Z,65.50
2023-01-29T17:37:44.251Z,68.15
2023-01-29T17:40:22.763Z,68.85
2023-01-29T17:42:50.444Z,64.45
2023-01-29T17:45:18.310Z,63.00
2023-01-29T17:47:46.208Z,66.78
2023-01-29T17:50:20.485Z,62.83
2023-01-29T17:52:48.239Z,61.95
2023-01-29T17:55:16.493Z,66.20
2023-01-29T17:57:45.858Z,62.15
2023-01-29T18:00:18.983Z,63.33
2023-01-29T18:02:46.695Z,67.07
2023-01-29T18:05:15.789Z,62.30
2023-01-29T18:07:45.219Z,66.88
2023-01-29T18:10:14.358Z,63.88
2023-01-29T18:12:42.057Z,67.30
2023-01-29T18:15:11.880Z,63.50
2023-01-29T18:17:40.068Z,62.67
2023-01-29T18:20:18.580Z,60.72
2023-01-29T18:22:46.555Z,62.92
2023-01-29T18:25:14.444Z,55.60
2023-01-29T18:27:42.463Z,57.55
2023-01-29T18:30:13.339Z,61.22
2023-01-29T18:32:40.963Z,63.90
2023-01-29T18:35:09.745Z,65.57
2023-01-29T18:37:37.512Z,58.38
2023-01-29T18:40:06.145Z,60.07
2023-01-29T18:42:35.823Z,54.67
2023-01-29T18:45:03.863Z,56.40
2023-01-29T18:47:32.893Z,60.88
2023-01-29T18:50:00.403Z,61.95
2023-01-29T18:52:28.178Z,63.47
2023-01-29T18:54:55.691Z,60.15
2023-01-29T18:58:28.456Z,59.83
2023-01-29T19:00:12.085Z,60.72
2023-01-29T19:02:42.987Z,60.83
2023-01-29T19:05:10.813Z,67.03
2023-01-29T19:07:38.342Z,62.42
2023-01-29T19:10:09.237Z,71.15
2023-01-29T19:12:38.036Z,75.03
2023-01-29T19:15:06.557Z,67.15
2023-01-29T19:17:34.722Z,66.90
2023-01-29T19:20:04.737Z,67.73
2023-01-29T19:22:42.564Z,68.07
2023-01-29T19:25:12.815Z,58.22
2023-01-29T19:27:40.552Z,63.70
2023-01-29T19:30:10.804Z,73.70
2023-01-29T19:32:38.497Z,70.70
2023-01-29T19:35:07.943Z,69.40
2023-01-29T19:37:35.881Z,75.68
2023-01-29T19:40:03.623Z,69.87
2023-01-29T19:42:31.471Z,70.05
2023-01-29T19:44:59.209Z,75.72
2023-01-29T19:47:27.102Z,75.88
2023-01-29T19:49:54.793Z,73.00
2023-01-29T19:52:50.337Z,76.22
2023-01-29T19:55:20.296Z,74.15
2023-01-29T19:57:48.324Z,78.05
2023-01-29T20:00:17.421Z,81.55
2023-01-29T20:02:45.239Z,80.20
2023-01-29T20:05:13.441Z,72.10
2023-01-29T20:07:42.424Z,74.00
2023-01-29T20:10:17.128Z,82.47
2023-01-29T20:12:45.449Z,71.38
2023-01-29T20:15:13.380Z,74.78
2023-01-29T20:17:41.370Z,61.33
2023-01-29T20:20:10.397Z,75.40
2023-01-29T20:22:38.103Z,69.07
2023-01-29T20:25:07.979Z,65.28
2023-01-29T20:27:35.509Z,67.43
2023-01-29T20:30:03.263Z,61.38
2023-01-29T20:32:31.756Z,68.43
2023-01-29T20:34:59.272Z,59.30
2023-01-29T20:37:27.119Z,55.85
2023-01-29T20:39:54.659Z,60.50
2023-01-29T20:42:23.570Z,64.03
2023-01-29T20:44:51.132Z,55.95
2023-01-29T20:47:18.845Z,65.80
2023-01-29T20:49:46.622Z,57.25
2023-01-29T20:52:14.214Z,64.32
2023-01-29T20:54:41.861Z,56.38
2023-01-29T20:57:09.456Z,56.00
2023-01-29T20:59:38.491Z,58.30
2023-01-29T21:02:06.011Z,56.87
2023-01-29T21:04:33.536Z,61.40
2023-01-29T21:07:01.083Z,54.08
2023-01-29T21:09:28.655Z,56.88
2023-01-29T21:11:56.205Z,54.92
2023-01-29T21:14:23.919Z,55.88
2023-01-29T21:16:53.066Z,59.33
2023-01-29T21:19:20.926Z,55.15
2023-01-29T21:21:48.484Z,55.17
2023-01-29T21:24:18.641Z,60.38
2023-01-29T21:26:46.434Z,48.35
2023-01-29T21:29:14.347Z,53.17
2023-01-29T21:31:42.711Z,48.35
2023-01-29T21:34:11.610Z,54.00
2023-01-29T21:36:39.267Z,62.22
2023-01-29T21:39:16.438Z,49.83
2023-01-29T21:42:01.795Z,56.08
2023-01-29T21:44:29.515Z,56.40
2023-01-29T21:46:57.028Z,47.13
2023-01-29T21:49:25.967Z,58.70
2023-01-29T21:51:54.542Z,56.88
2023-01-29T21:54:22.021Z,46.47
2023-01-29T21:56:49.582Z,51.08
2023-01-29T21:59:17.062Z,55.67
2023-01-29T22:01:44.680Z,50.08
2023-01-29T22:04:12.445Z,56.75
2023-01-29T22:06:41.357Z,47.95
2023-01-29T22:09:09.032Z,49.58
2023-01-29T22:11:36.781Z,54.13
2023-01-29T22:14:04.281Z,55.78
2023-01-29T22:16:31.973Z,51.35
2023-01-29T22:18:59.675Z,49.78
2023-01-29T22:21:27.178Z,53.60
2023-01-29T22:23:56.211Z,35.33
2023-01-29T22:26:23.970Z,55.22
2023-01-29T22:28:51.531Z,57.80
2023-01-29T22:31:19.230Z,54.70
2023-01-29T22:33:46.737Z,52.20
2023-01-29T22:36:14.316Z,55.90
2023-01-29T22:38:43.224Z,43.75
2023-01-29T22:41:12.233Z,53.85
2023-01-29T22:43:40.916Z,45.25
2023-01-29T22:46:09.060Z,47.22
2023-01-29T22:48:36.605Z,53.72
2023-01-29T22:51:13.764Z,50.15
2023-01-29T22:53:43.023Z,42.72
2023-01-29T22:56:12.436Z,53.53
2023-01-29T22:58:41.038Z,51.53
2023-01-29T23:01:08.824Z,57.42
2023-01-29T23:03:36.926Z,56.10
2023-01-29T23:06:05.111Z,52.70
2023-01-29T23:08:33.664Z,51.50
2023-01-29T23:11:13.764Z,48.20
2023-01-29T23:13:43.631Z,53.97
2023-01-29T23:16:11.533Z,49.20
2023-01-29T23:18:39.815Z,48.35
2023-01-29T23:21:07.489Z,50.22
2023-01-29T23:23:35.840Z,48.75
2023-01-29T23:26:22.701Z,52.10
2023-01-29T23:28:51.581Z,52.20
2023-01-29T23:31:19.489Z,51.97
2023-01-29T23:33:47.119Z,56.35
2023-01-29T23:36:14.765Z,44.30
2023-01-29T23:38:42.359Z,51.10
2023-01-29T23:41:09.825Z,48.90
2023-01-29T23:43:37.337Z,48.63
2023-01-29T23:46:06.543Z,51.08
2023-01-29T23:48:34.175Z,53.80
2023-01-29T23:51:01.862Z,50.92
2023-01-29T23:53:29.347Z,58.47
2023-01-29T23:55:58.053Z,53.83
2023-01-29T23:58:26.088Z,56.10
